sensor_id;sensor_type;location;lat;lon;timestamp;temperature;humidity
60868;DHT22;46702;48.370;10.794;2022-08-30T00:00:53;15.30;99.90
60868;DHT22;46702;48.370;10.794;2022-08-30T00:03:41;15.30;99.90
60868;DHT22;46702;48.370;10.794;2022-08-30T00:06:08;15.30;99.90
60868;DHT22;46702;48.370;10.794;2022-08-30T00:08:35;15.30;99.90
60868;DHT22;46702;48.370;10.794;2022-08-30T00:11:02;15.20;99.90
60868;DHT22;46702;48.370;10.794;2022-08-30T00:13:29;15.10;99.90
60868;DHT22;46702;48.370;10.794;2022-08-30T00:15:55;15.10;99.90
60868;DHT22;46702;48.370;10.794;2022-08-30T00:18:21;14.90;99.90
60868;DHT22;46702;48.370;10.794;2022-08-30T00:20:48;15.00;99.90
60868;DHT22;46702;48.370;10.794;2022-08-30T00:23:15;15.00;99.90
60868;DHT22;46702;48.370;10.794;2022-08-30T00:25:41;14.70;99.90
60868;DHT22;46702;48.370;10.794;2022-08-30T00:28:07;14.40;99.90
60868;DHT22;46702;48.370;10.794;2022-08-30T00:30:34;14.40;99.90
60868;DHT22;46702;48.370;10.794;2022-08-30T00:32:59;14.60;99.90
60868;DHT22;46702;48.370;10.794;2022-08-30T00:35:25;14.60;99.90
60868;DHT22;46702;48.370;10.794;2022-08-30T00:37:51;14.60;99.90
60868;DHT22;46702;48.370;10.794;2022-08-30T00:40:18;14.60;99.90
60868;DHT22;46702;48.370;10.794;2022-08-30T00:42:45;14.60;99.90
60868;DHT22;46702;48.370;10.794;2022-08-30T00:45:21;14.60;99.90
60868;DHT22;46702;48.370;10.794;2022-08-30T00:47:47;14.50;99.90
60868;DHT22;46702;48.370;10.794;2022-08-30T00:50:14;14.50;99.90
60868;DHT22;46702;48.370;10.794;2022-08-30T00:52:44;14.30;99.90
60868;DHT22;46702;48.370;10.794;2022-08-30T00:55:12;14.00;99.90
60868;DHT22;46702;48.370;10.794;2022-08-30T00:57:40;14.10;99.90
60868;DHT22;46702;48.370;10.794;2022-08-30T01:00:07;14.10;99.90
60868;DHT22;46702;48.370;10.794;2022-08-30T01:02:33;14.30;99.90
60868;DHT22;46702;48.370;10.794;2022-08-30T01:05:00;14.40;99.90
60868;DHT22;46702;48.370;10.794;2022-08-30T01:07:27;14.50;99.90
60868;DHT22;46702;48.370;10.794;2022-08-30T01:09:53;14.60;99.90
60868;DHT22;46702;48.370;10.794;2022-08-30T01:12:19;14.60;99.90
60868;DHT22;46702;48.370;10.794;2022-08-30T01:14:45;14.60;99.90
60868;DHT22;46702;48.370;10.794;2022-08-30T01:17:13;14.70;99.90
60868;DHT22;46702;48.370;10.794;2022-08-30T01:19:53;14.60;99.90
60868;DHT22;46702;48.370;10.794;2022-08-30T01:24:48;14.60;99.90
60868;DHT22;46702;48.370;10.794;2022-08-30T01:27:15;14.60;99.90
60868;DHT22;46702;48.370;10.794;2022-08-30T01:29:41;14.60;99.90
60868;DHT22;46702;48.370;10.794;2022-08-30T01:32:23;14.60;99.90
60868;DHT22;46702;48.370;10.794;2022-08-30T01:34:49;14.40;99.90
60868;DHT22;46702;48.370;10.794;2022-08-30T01:37:19;14.10;99.90
60868;DHT22;46702;48.370;10.794;2022-08-30T01:39:46;13.90;99.90
60868;DHT22;46702;48.370;10.794;2022-08-30T01:42:13;14.00;99.90
60868;DHT22;46702;48.370;10.794;2022-08-30T01:44:38;14.10;99.90
60868;DHT22;46702;48.370;10.794;2022-08-30T01:47:04;13.80;99.90
60868;DHT22;46702;48.370;10.794;2022-08-30T01:49:30;13.60;99.90
60868;DHT22;46702;48.370;10.794;2022-08-30T01:51:56;13.70;99.90
60868;DHT22;46702;48.370;10.794;2022-08-30T01:54:22;13.80;99.90
60868;DHT22;46702;48.370;10.794;2022-08-30T01:56:48;13.90;99.90
60868;DHT22;46702;48.370;10.794;2022-08-30T01:59:14;13.90;99.90
60868;DHT22;46702;48.370;10.794;2022-08-30T02:01:40;14.00;99.90
60868;DHT22;46702;48.370;10.794;2022-08-30T02:04:07;13.70;99.90
60868;DHT22;46702;48.370;10.794;2022-08-30T02:06:33;13.70;99.90
60868;DHT22;46702;48.370;10.794;2022-08-30T02:08:59;13.80;99.90
60868;DHT22;46702;48.370;10.794;2022-08-30T02:11:25;13.60;99.90
60868;DHT22;46702;48.370;10.794;2022-08-30T02:13:51;13.60;99.90
60868;DHT22;46702;48.370;10.794;2022-08-30T02:16:19;13.50;99.90
60868;DHT22;46702;48.370;10.794;2022-08-30T02:18:47;13.60;99.90
60868;DHT22;46702;48.370;10.794;2022-08-30T02:21:13;13.60;99.90
60868;DHT22;46702;48.370;10.794;2022-08-30T02:23:40;13.70;99.90
60868;DHT22;46702;48.370;10.794;2022-08-30T02:26:06;13.80;99.90
60868;DHT22;46702;48.370;10.794;2022-08-30T02:28:33;13.80;99.90
60868;DHT22;46702;48.370;10.794;2022-08-30T02:30:59;13.80;99.90
60868;DHT22;46702;48.370;10.794;2022-08-30T02:33:25;13.80;99.90
60868;DHT22;46702;48.370;10.794;2022-08-30T02:35:51;13.70;99.90
60868;DHT22;46702;48.370;10.794;2022-08-30T02:38:17;13.50;99.90
60868;DHT22;46702;48.370;10.794;2022-08-30T02:40:42;13.50;99.90
60868;DHT22;46702;48.370;10.794;2022-08-30T02:43:09;13.50;99.90
60868;DHT22;46702;48.370;10.794;2022-08-30T02:45:35;13.60;99.90
60868;DHT22;46702;48.370;10.794;2022-08-30T02:48:01;13.60;99.90
60868;DHT22;46702;48.370;10.794;2022-08-30T02:50:26;13.60;99.90
60868;DHT22;46702;48.370;10.794;2022-08-30T02:52:52;13.60;99.90
60868;DHT22;46702;48.370;10.794;2022-08-30T02:55:18;13.60;99.90
60868;DHT22;46702;48.370;10.794;2022-08-30T02:57:43;13.60;99.90
60868;DHT22;46702;48.370;10.794;2022-08-30T03:00:12;13.40;99.90
60868;DHT22;46702;48.370;10.794;2022-08-30T03:02:39;13.30;99.90
60868;DHT22;46702;48.370;10.794;2022-08-30T03:05:07;13.20;99.90
60868;DHT22;46702;48.370;10.794;2022-08-30T03:07:32;13.10;99.90
60868;DHT22;46702;48.370;10.794;2022-08-30T03:09:58;13.10;99.90
60868;DHT22;46702;48.370;10.794;2022-08-30T03:12:24;13.10;99.90
60868;DHT22;46702;48.370;10.794;2022-08-30T03:14:50;13.20;99.90
60868;DHT22;46702;48.370;10.794;2022-08-30T03:17:16;13.10;99.90
60868;DHT22;46702;48.370;10.794;2022-08-30T03:19:42;13.10;99.90
60868;DHT22;46702;48.370;10.794;2022-08-30T03:22:09;13.00;99.90
60868;DHT22;46702;48.370;10.794;2022-08-30T03:24:35;13.00;99.90
60868;DHT22;46702;48.370;10.794;2022-08-30T03:27:00;13.10;99.90
60868;DHT22;46702;48.370;10.794;2022-08-30T03:29:26;12.70;99.90
60868;DHT22;46702;48.370;10.794;2022-08-30T03:31:54;12.50;99.90
60868;DHT22;46702;48.370;10.794;2022-08-30T03:34:22;12.40;99.90
60868;DHT22;46702;48.370;10.794;2022-08-30T03:36:48;12.40;99.90
60868;DHT22;46702;48.370;10.794;2022-08-30T03:39:14;12.50;99.90
60868;DHT22;46702;48.370;10.794;2022-08-30T03:41:40;12.50;99.90
60868;DHT22;46702;48.370;10.794;2022-08-30T03:44:05;12.60;99.90
60868;DHT22;46702;48.370;10.794;2022-08-30T03:46:31;12.70;99.90
60868;DHT22;46702;48.370;10.794;2022-08-30T03:48:56;12.80;99.90
60868;DHT22;46702;48.370;10.794;2022-08-30T03:51:23;12.80;99.90
60868;DHT22;46702;48.370;10.794;2022-08-30T03:53:49;12.90;99.90
60868;DHT22;46702;48.370;10.794;2022-08-30T03:56:15;13.00;99.90
60868;DHT22;46702;48.370;10.794;2022-08-30T03:58:41;13.10;99.90
60868;DHT22;46702;48.370;10.794;2022-08-30T04:01:07;13.00;99.90
60868;DHT22;46702;48.370;10.794;2022-08-30T04:03:33;13.00;99.90
60868;DHT22;46702;48.370;10.794;2022-08-30T04:06:00;12.90;99.90
60868;DHT22;46702;48.370;10.794;2022-08-30T04:08:26;12.90;99.90
60868;DHT22;46702;48.370;10.794;2022-08-30T04:10:53;12.90;99.90
60868;DHT22;46702;48.370;10.794;2022-08-30T04:13:20;13.00;99.90
60868;DHT22;46702;48.370;10.794;2022-08-30T04:15:46;13.00;99.90
60868;DHT22;46702;48.370;10.794;2022-08-30T04:18:12;13.10;99.90
60868;DHT22;46702;48.370;10.794;2022-08-30T04:20:38;13.10;99.90
60868;DHT22;46702;48.370;10.794;2022-08-30T04:23:04;13.20;99.90
60868;DHT22;46702;48.370;10.794;2022-08-30T04:25:32;13.10;99.90
60868;DHT22;46702;48.370;10.794;2022-08-30T04:27:59;13.10;99.90
60868;DHT22;46702;48.370;10.794;2022-08-30T04:30:25;13.10;99.90
60868;DHT22;46702;48.370;10.794;2022-08-30T04:32:51;13.10;99.90
60868;DHT22;46702;48.370;10.794;2022-08-30T04:35:16;13.10;99.90
60868;DHT22;46702;48.370;10.794;2022-08-30T04:37:42;13.10;99.90
60868;DHT22;46702;48.370;10.794;2022-08-30T04:40:08;13.10;99.90
60868;DHT22;46702;48.370;10.794;2022-08-30T04:42:34;13.00;99.90
60868;DHT22;46702;48.370;10.794;2022-08-30T04:45:06;12.80;99.90
60868;DHT22;46702;48.370;10.794;2022-08-30T04:47:32;12.70;99.90
60868;DHT22;46702;48.370;10.794;2022-08-30T04:49:57;12.80;99.90
60868;DHT22;46702;48.370;10.794;2022-08-30T04:52:23;12.80;99.90
60868;DHT22;46702;48.370;10.794;2022-08-30T04:54:53;12.40;99.90
60868;DHT22;46702;48.370;10.794;2022-08-30T04:57:21;12.40;99.90
60868;DHT22;46702;48.370;10.794;2022-08-30T04:59:47;12.20;99.90
60868;DHT22;46702;48.370;10.794;2022-08-30T05:02:13;12.30;99.90
60868;DHT22;46702;48.370;10.794;2022-08-30T05:04:38;12.40;99.90
60868;DHT22;46702;48.370;10.794;2022-08-30T05:07:27;12.40;99.90
60868;DHT22;46702;48.370;10.794;2022-08-30T05:09:52;12.50;99.90
60868;DHT22;46702;48.370;10.794;2022-08-30T05:12:18;12.60;99.90
60868;DHT22;46702;48.370;10.794;2022-08-30T05:14:44;12.70;99.90
60868;DHT22;46702;48.370;10.794;2022-08-30T05:17:09;12.80;99.90
60868;DHT22;46702;48.370;10.794;2022-08-30T05:19:35;12.90;99.90
60868;DHT22;46702;48.370;10.794;2022-08-30T05:22:01;13.00;99.90
60868;DHT22;46702;48.370;10.794;2022-08-30T05:24:26;12.90;99.90
60868;DHT22;46702;48.370;10.794;2022-08-30T05:26:52;13.00;99.90
60868;DHT22;46702;48.370;10.794;2022-08-30T05:29:17;13.10;99.90
60868;DHT22;46702;48.370;10.794;2022-08-30T05:31:43;13.20;99.90
60868;DHT22;46702;48.370;10.794;2022-08-30T05:34:09;13.30;99.90
60868;DHT22;46702;48.370;10.794;2022-08-30T05:36:37;13.40;99.90
60868;DHT22;46702;48.370;10.794;2022-08-30T05:39:04;13.40;99.90
60868;DHT22;46702;48.370;10.794;2022-08-30T05:41:30;13.20;99.90
60868;DHT22;46702;48.370;10.794;2022-08-30T05:43:59;13.10;99.90
60868;DHT22;46702;48.370;10.794;2022-08-30T05:46:27;13.10;99.90
60868;DHT22;46702;48.370;10.794;2022-08-30T05:48:56;13.20;99.90
60868;DHT22;46702;48.370;10.794;2022-08-30T05:51:23;13.30;99.90
60868;DHT22;46702;48.370;10.794;2022-08-30T05:53:52;13.40;99.90
60868;DHT22;46702;48.370;10.794;2022-08-30T05:56:23;13.50;99.90
60868;DHT22;46702;48.370;10.794;2022-08-30T05:58:49;13.60;99.90
60868;DHT22;46702;48.370;10.794;2022-08-30T06:01:27;13.70;99.90
60868;DHT22;46702;48.370;10.794;2022-08-30T06:03:54;13.90;99.90
60868;DHT22;46702;48.370;10.794;2022-08-30T06:06:21;14.00;99.90
60868;DHT22;46702;48.370;10.794;2022-08-30T06:08:47;14.30;99.90
60868;DHT22;46702;48.370;10.794;2022-08-30T06:11:15;14.40;99.90
60868;DHT22;46702;48.370;10.794;2022-08-30T06:13:41;14.50;99.90
60868;DHT22;46702;48.370;10.794;2022-08-30T06:16:13;14.60;99.90
60868;DHT22;46702;48.370;10.794;2022-08-30T06:18:39;14.80;99.90
60868;DHT22;46702;48.370;10.794;2022-08-30T06:21:05;15.00;99.90
60868;DHT22;46702;48.370;10.794;2022-08-30T06:23:31;15.20;99.90
60868;DHT22;46702;48.370;10.794;2022-08-30T06:26:03;15.30;99.90
60868;DHT22;46702;48.370;10.794;2022-08-30T06:28:29;15.50;99.90
60868;DHT22;46702;48.370;10.794;2022-08-30T06:30:55;15.60;99.90
60868;DHT22;46702;48.370;10.794;2022-08-30T06:33:20;15.80;99.90
60868;DHT22;46702;48.370;10.794;2022-08-30T06:35:46;15.90;99.90
60868;DHT22;46702;48.370;10.794;2022-08-30T06:38:12;16.10;99.90
60868;DHT22;46702;48.370;10.794;2022-08-30T06:40:37;16.30;99.90
60868;DHT22;46702;48.370;10.794;2022-08-30T06:43:03;16.40;99.90
60868;DHT22;46702;48.370;10.794;2022-08-30T06:45:28;16.50;99.90
60868;DHT22;46702;48.370;10.794;2022-08-30T06:47:57;16.60;99.90
60868;DHT22;46702;48.370;10.794;2022-08-30T06:50:23;16.60;99.90
60868;DHT22;46702;48.370;10.794;2022-08-30T06:52:50;16.60;99.90
60868;DHT22;46702;48.370;10.794;2022-08-30T06:55:17;16.60;99.90
60868;DHT22;46702;48.370;10.794;2022-08-30T06:57:43;16.70;99.90
60868;DHT22;46702;48.370;10.794;2022-08-30T07:00:14;16.80;99.90
60868;DHT22;46702;48.370;10.794;2022-08-30T07:02:41;16.90;99.90
60868;DHT22;46702;48.370;10.794;2022-08-30T07:05:08;17.20;99.90
60868;DHT22;46702;48.370;10.794;2022-08-30T07:07:37;17.40;99.90
60868;DHT22;46702;48.370;10.794;2022-08-30T07:10:06;17.60;99.90
60868;DHT22;46702;48.370;10.794;2022-08-30T07:12:33;17.70;99.90
60868;DHT22;46702;48.370;10.794;2022-08-30T07:14:58;17.90;99.90
60868;DHT22;46702;48.370;10.794;2022-08-30T07:17:26;18.10;99.90
60868;DHT22;46702;48.370;10.794;2022-08-30T07:20:10;18.20;99.90
60868;DHT22;46702;48.370;10.794;2022-08-30T07:22:37;18.40;99.90
60868;DHT22;46702;48.370;10.794;2022-08-30T07:25:03;18.60;99.90
60868;DHT22;46702;48.370;10.794;2022-08-30T07:27:29;18.60;99.90
60868;DHT22;46702;48.370;10.794;2022-08-30T07:29:55;18.60;99.90
60868;DHT22;46702;48.370;10.794;2022-08-30T07:32:23;18.70;99.90
60868;DHT22;46702;48.370;10.794;2022-08-30T07:34:48;18.70;99.90
60868;DHT22;46702;48.370;10.794;2022-08-30T07:37:14;18.80;99.90
60868;DHT22;46702;48.370;10.794;2022-08-30T07:39:40;19.00;99.90
60868;DHT22;46702;48.370;10.794;2022-08-30T07:42:05;19.20;99.90
60868;DHT22;46702;48.370;10.794;2022-08-30T07:44:31;19.40;99.90
60868;DHT22;46702;48.370;10.794;2022-08-30T07:46:57;19.70;99.90
60868;DHT22;46702;48.370;10.794;2022-08-30T07:49:22;19.90;99.90
60868;DHT22;46702;48.370;10.794;2022-08-30T07:51:48;20.10;99.90
60868;DHT22;46702;48.370;10.794;2022-08-30T07:54:14;20.30;99.90
60868;DHT22;46702;48.370;10.794;2022-08-30T07:56:39;20.50;99.90
60868;DHT22;46702;48.370;10.794;2022-08-30T07:59:05;20.70;99.90
60868;DHT22;46702;48.370;10.794;2022-08-30T08:01:31;20.60;99.90
60868;DHT22;46702;48.370;10.794;2022-08-30T08:03:57;20.60;99.90
60868;DHT22;46702;48.370;10.794;2022-08-30T08:06:23;20.60;99.90
60868;DHT22;46702;48.370;10.794;2022-08-30T08:08:50;20.80;99.90
60868;DHT22;46702;48.370;10.794;2022-08-30T08:11:21;20.80;99.90
60868;DHT22;46702;48.370;10.794;2022-08-30T08:13:49;20.90;99.90
60868;DHT22;46702;48.370;10.794;2022-08-30T08:16:15;21.00;99.90
60868;DHT22;46702;48.370;10.794;2022-08-30T08:18:40;21.00;99.90
60868;DHT22;46702;48.370;10.794;2022-08-30T08:21:06;21.10;99.90
60868;DHT22;46702;48.370;10.794;2022-08-30T08:23:32;21.20;99.90
60868;DHT22;46702;48.370;10.794;2022-08-30T08:25:58;21.20;99.90
60868;DHT22;46702;48.370;10.794;2022-08-30T08:28:24;21.40;99.90
60868;DHT22;46702;48.370;10.794;2022-08-30T08:30:50;21.50;99.90
60868;DHT22;46702;48.370;10.794;2022-08-30T08:33:17;21.50;99.90
60868;DHT22;46702;48.370;10.794;2022-08-30T08:35:43;21.60;99.90
60868;DHT22;46702;48.370;10.794;2022-08-30T08:38:09;21.90;99.90
60868;DHT22;46702;48.370;10.794;2022-08-30T08:41:08;22.00;99.90
60868;DHT22;46702;48.370;10.794;2022-08-30T08:43:36;22.10;99.90
60868;DHT22;46702;48.370;10.794;2022-08-30T08:46:46;22.30;99.90
60868;DHT22;46702;48.370;10.794;2022-08-30T08:48:54;22.30;99.90
60868;DHT22;46702;48.370;10.794;2022-08-30T08:51:25;22.40;99.90
60868;DHT22;46702;48.370;10.794;2022-08-30T08:57:03;22.50;99.90
60868;DHT22;46702;48.370;10.794;2022-08-30T08:59:29;22.70;99.90
60868;DHT22;46702;48.370;10.794;2022-08-30T09:01:58;22.90;99.90
60868;DHT22;46702;48.370;10.794;2022-08-30T09:04:30;22.90;99.90
60868;DHT22;46702;48.370;10.794;2022-08-30T09:07:00;22.90;99.90
60868;DHT22;46702;48.370;10.794;2022-08-30T09:09:36;23.00;99.90
60868;DHT22;46702;48.370;10.794;2022-08-30T09:12:05;23.10;99.90
60868;DHT22;46702;48.370;10.794;2022-08-30T09:14:40;23.10;96.40
60868;DHT22;46702;48.370;10.794;2022-08-30T09:17:12;23.10;98.30
60868;DHT22;46702;48.370;10.794;2022-08-30T09:19:43;23.30;96.50
60868;DHT22;46702;48.370;10.794;2022-08-30T09:24:50;23.50;93.50
60868;DHT22;46702;48.370;10.794;2022-08-30T09:27:43;23.60;93.00
60868;DHT22;46702;48.370;10.794;2022-08-30T09:30:19;23.60;91.60
60868;DHT22;46702;48.370;10.794;2022-08-30T09:32:53;23.70;94.60
60868;DHT22;46702;48.370;10.794;2022-08-30T09:37:57;24.10;93.80
60868;DHT22;46702;48.370;10.794;2022-08-30T09:40:35;24.30;91.80
60868;DHT22;46702;48.370;10.794;2022-08-30T09:45:42;24.40;87.00
60868;DHT22;46702;48.370;10.794;2022-08-30T09:48:32;24.70;90.30
60868;DHT22;46702;48.370;10.794;2022-08-30T09:51:13;25.10;87.30
60868;DHT22;46702;48.370;10.794;2022-08-30T09:53:46;24.90;91.70
60868;DHT22;46702;48.370;10.794;2022-08-30T09:56:30;24.70;76.60
60868;DHT22;46702;48.370;10.794;2022-08-30T10:01:45;24.60;78.90
60868;DHT22;46702;48.370;10.794;2022-08-30T10:04:24;24.60;74.20
60868;DHT22;46702;48.370;10.794;2022-08-30T10:15:53;24.60;87.50
60868;DHT22;46702;48.370;10.794;2022-08-30T10:18:39;24.60;81.50
60868;DHT22;46702;48.370;10.794;2022-08-30T10:21:22;24.70;75.20
60868;DHT22;46702;48.370;10.794;2022-08-30T10:24:30;24.70;75.10
60868;DHT22;46702;48.370;10.794;2022-08-30T10:26:56;24.70;67.10
60868;DHT22;46702;48.370;10.794;2022-08-30T10:34:37;24.90;68.20
60868;DHT22;46702;48.370;10.794;2022-08-30T10:37:14;25.00;71.40
60868;DHT22;46702;48.370;10.794;2022-08-30T10:39:46;25.10;77.10
60868;DHT22;46702;48.370;10.794;2022-08-30T10:45:12;25.30;65.50
60868;DHT22;46702;48.370;10.794;2022-08-30T10:47:58;25.30;67.50
60868;DHT22;46702;48.370;10.794;2022-08-30T10:50:33;25.60;63.70
60868;DHT22;46702;48.370;10.794;2022-08-30T10:53:31;25.50;66.10
60868;DHT22;46702;48.370;10.794;2022-08-30T10:56:07;25.50;64.10
60868;DHT22;46702;48.370;10.794;2022-08-30T10:58:37;25.60;63.60
60868;DHT22;46702;48.370;10.794;2022-08-30T11:06:58;25.50;64.50
60868;DHT22;46702;48.370;10.794;2022-08-30T11:14:21;25.70;59.10
60868;DHT22;46702;48.370;10.794;2022-08-30T11:16:50;25.60;61.50
60868;DHT22;46702;48.370;10.794;2022-08-30T11:19:37;25.60;64.80
60868;DHT22;46702;48.370;10.794;2022-08-30T11:27:52;25.40;58.00
60868;DHT22;46702;48.370;10.794;2022-08-30T11:33:02;25.50;60.20
60868;DHT22;46702;48.370;10.794;2022-08-30T11:35:45;25.50;60.00
60868;DHT22;46702;48.370;10.794;2022-08-30T11:52:02;25.60;61.70
60868;DHT22;46702;48.370;10.794;2022-08-30T11:57:43;25.70;58.20
60868;DHT22;46702;48.370;10.794;2022-08-30T12:00:32;25.70;61.70
60868;DHT22;46702;48.370;10.794;2022-08-30T12:03:25;25.60;65.20
60868;DHT22;46702;48.370;10.794;2022-08-30T12:05:55;25.70;59.20
60868;DHT22;46702;48.370;10.794;2022-08-30T12:11:50;25.40;55.80
60868;DHT22;46702;48.370;10.794;2022-08-30T12:13:54;25.50;57.10
60868;DHT22;46702;48.370;10.794;2022-08-30T12:16:34;25.40;59.30
60868;DHT22;46702;48.370;10.794;2022-08-30T12:19:14;25.40;56.50
60868;DHT22;46702;48.370;10.794;2022-08-30T12:21:42;25.50;55.20
60868;DHT22;46702;48.370;10.794;2022-08-30T12:24:25;25.50;57.60
60868;DHT22;46702;48.370;10.794;2022-08-30T12:26:52;25.60;56.50
60868;DHT22;46702;48.370;10.794;2022-08-30T12:29:24;25.50;55.50
60868;DHT22;46702;48.370;10.794;2022-08-30T12:32:01;25.50;54.20
60868;DHT22;46702;48.370;10.794;2022-08-30T12:34:32;25.40;54.10
60868;DHT22;46702;48.370;10.794;2022-08-30T12:39:49;25.40;53.50
60868;DHT22;46702;48.370;10.794;2022-08-30T12:42:29;25.30;57.20
60868;DHT22;46702;48.370;10.794;2022-08-30T12:45:01;25.40;60.50
60868;DHT22;46702;48.370;10.794;2022-08-30T12:47:40;25.40;58.10
60868;DHT22;46702;48.370;10.794;2022-08-30T12:50:08;25.40;55.00
60868;DHT22;46702;48.370;10.794;2022-08-30T12:52:40;25.40;53.20
60868;DHT22;46702;48.370;10.794;2022-08-30T12:57:40;25.40;54.30
60868;DHT22;46702;48.370;10.794;2022-08-30T13:00:26;25.40;54.20
60868;DHT22;46702;48.370;10.794;2022-08-30T13:02:54;25.30;58.00
60868;DHT22;46702;48.370;10.794;2022-08-30T13:10:55;25.60;59.20
60868;DHT22;46702;48.370;10.794;2022-08-30T13:13:34;25.50;62.70
60868;DHT22;46702;48.370;10.794;2022-08-30T13:16:11;25.60;59.70
60868;DHT22;46702;48.370;10.794;2022-08-30T13:18:38;25.60;54.80
60868;DHT22;46702;48.370;10.794;2022-08-30T13:21:27;25.50;56.40
60868;DHT22;46702;48.370;10.794;2022-08-30T13:23:59;25.40;65.30
60868;DHT22;46702;48.370;10.794;2022-08-30T13:26:26;25.40;62.80
60868;DHT22;46702;48.370;10.794;2022-08-30T13:28:54;25.40;62.60
60868;DHT22;46702;48.370;10.794;2022-08-30T13:31:21;25.30;62.00
60868;DHT22;46702;48.370;10.794;2022-08-30T13:33:47;25.10;62.60
60868;DHT22;46702;48.370;10.794;2022-08-30T13:36:17;25.10;62.30
60868;DHT22;46702;48.370;10.794;2022-08-30T13:38:44;25.10;60.30
60868;DHT22;46702;48.370;10.794;2022-08-30T13:41:09;25.20;59.50
60868;DHT22;46702;48.370;10.794;2022-08-30T13:43:35;25.30;59.80
60868;DHT22;46702;48.370;10.794;2022-08-30T13:46:02;25.40;56.10
60868;DHT22;46702;48.370;10.794;2022-08-30T13:48:28;25.60;52.30
60868;DHT22;46702;48.370;10.794;2022-08-30T13:50:53;25.60;54.50
60868;DHT22;46702;48.370;10.794;2022-08-30T13:53:19;25.80;56.20
60868;DHT22;46702;48.370;10.794;2022-08-30T13:55:45;25.80;52.80
60868;DHT22;46702;48.370;10.794;2022-08-30T13:58:11;25.80;50.90
60868;DHT22;46702;48.370;10.794;2022-08-30T14:00:37;25.80;50.80
60868;DHT22;46702;48.370;10.794;2022-08-30T14:03:03;25.80;54.20
60868;DHT22;46702;48.370;10.794;2022-08-30T14:05:34;25.80;52.80
60868;DHT22;46702;48.370;10.794;2022-08-30T14:08:01;25.80;49.40
60868;DHT22;46702;48.370;10.794;2022-08-30T14:10:28;25.80;50.30
60868;DHT22;46702;48.370;10.794;2022-08-30T14:12:54;25.90;57.70
60868;DHT22;46702;48.370;10.794;2022-08-30T14:15:20;25.80;55.00
60868;DHT22;46702;48.370;10.794;2022-08-30T14:17:45;25.70;56.90
60868;DHT22;46702;48.370;10.794;2022-08-30T14:20:12;25.50;55.30
60868;DHT22;46702;48.370;10.794;2022-08-30T14:22:38;25.50;56.60
60868;DHT22;46702;48.370;10.794;2022-08-30T14:25:04;25.60;55.60
60868;DHT22;46702;48.370;10.794;2022-08-30T14:27:30;25.60;53.30
60868;DHT22;46702;48.370;10.794;2022-08-30T14:29:56;25.60;57.30
60868;DHT22;46702;48.370;10.794;2022-08-30T14:32:22;25.60;54.90
60868;DHT22;46702;48.370;10.794;2022-08-30T14:34:48;25.60;51.90
60868;DHT22;46702;48.370;10.794;2022-08-30T14:37:14;25.60;53.00
60868;DHT22;46702;48.370;10.794;2022-08-30T14:39:40;25.60;53.00
60868;DHT22;46702;48.370;10.794;2022-08-30T14:42:07;25.50;52.10
60868;DHT22;46702;48.370;10.794;2022-08-30T14:44:34;25.60;52.50
60868;DHT22;46702;48.370;10.794;2022-08-30T14:46:59;25.60;52.60
60868;DHT22;46702;48.370;10.794;2022-08-30T14:49:25;25.50;56.10
60868;DHT22;46702;48.370;10.794;2022-08-30T14:51:51;25.40;54.70
60868;DHT22;46702;48.370;10.794;2022-08-30T14:54:20;25.40;54.60
60868;DHT22;46702;48.370;10.794;2022-08-30T14:56:46;25.40;54.50
60868;DHT22;46702;48.370;10.794;2022-08-30T14:59:12;25.50;51.20
60868;DHT22;46702;48.370;10.794;2022-08-30T15:01:39;25.40;50.40
60868;DHT22;46702;48.370;10.794;2022-08-30T15:04:07;25.40;50.90
60868;DHT22;46702;48.370;10.794;2022-08-30T15:06:33;25.40;55.30
60868;DHT22;46702;48.370;10.794;2022-08-30T15:08:59;25.40;55.50
60868;DHT22;46702;48.370;10.794;2022-08-30T15:11:25;25.30;58.50
60868;DHT22;46702;48.370;10.794;2022-08-30T15:13:52;25.20;54.60
60868;DHT22;46702;48.370;10.794;2022-08-30T15:16:29;25.10;51.60
60868;DHT22;46702;48.370;10.794;2022-08-30T15:18:56;25.10;51.30
60868;DHT22;46702;48.370;10.794;2022-08-30T15:21:26;25.00;52.00
60868;DHT22;46702;48.370;10.794;2022-08-30T15:23:53;25.00;53.40
60868;DHT22;46702;48.370;10.794;2022-08-30T15:26:19;25.10;54.20
60868;DHT22;46702;48.370;10.794;2022-08-30T15:28:45;25.10;56.50
60868;DHT22;46702;48.370;10.794;2022-08-30T15:31:11;25.20;52.60
60868;DHT22;46702;48.370;10.794;2022-08-30T15:33:38;25.30;51.90
60868;DHT22;46702;48.370;10.794;2022-08-30T15:36:05;25.30;55.30
60868;DHT22;46702;48.370;10.794;2022-08-30T15:38:31;25.30;54.70
60868;DHT22;46702;48.370;10.794;2022-08-30T15:41:00;25.30;54.90
60868;DHT22;46702;48.370;10.794;2022-08-30T15:43:28;25.10;56.80
60868;DHT22;46702;48.370;10.794;2022-08-30T15:45:54;25.00;53.40
60868;DHT22;46702;48.370;10.794;2022-08-30T15:48:20;25.10;56.80
60868;DHT22;46702;48.370;10.794;2022-08-30T15:50:55;25.10;54.50
60868;DHT22;46702;48.370;10.794;2022-08-30T15:53:21;25.00;54.90
60868;DHT22;46702;48.370;10.794;2022-08-30T15:55:47;25.00;55.10
60868;DHT22;46702;48.370;10.794;2022-08-30T15:58:12;25.00;55.10
60868;DHT22;46702;48.370;10.794;2022-08-30T16:00:38;25.00;54.60
60868;DHT22;46702;48.370;10.794;2022-08-30T16:03:05;24.90;55.90
60868;DHT22;46702;48.370;10.794;2022-08-30T16:05:31;24.90;52.60
60868;DHT22;46702;48.370;10.794;2022-08-30T16:07:56;25.00;53.30
60868;DHT22;46702;48.370;10.794;2022-08-30T16:10:22;25.00;56.60
60868;DHT22;46702;48.370;10.794;2022-08-30T16:12:48;25.00;54.50
60868;DHT22;46702;48.370;10.794;2022-08-30T16:15:13;24.90;54.90
60868;DHT22;46702;48.370;10.794;2022-08-30T16:17:39;24.90;52.80
60868;DHT22;46702;48.370;10.794;2022-08-30T16:20:05;24.90;54.60
60868;DHT22;46702;48.370;10.794;2022-08-30T16:22:31;24.70;59.00
60868;DHT22;46702;48.370;10.794;2022-08-30T16:24:57;24.50;58.20
60868;DHT22;46702;48.370;10.794;2022-08-30T16:27:23;24.30;61.60
60868;DHT22;46702;48.370;10.794;2022-08-30T16:29:49;24.20;59.80
60868;DHT22;46702;48.370;10.794;2022-08-30T16:32:15;24.10;61.20
60868;DHT22;46702;48.370;10.794;2022-08-30T16:34:41;24.10;63.70
60868;DHT22;46702;48.370;10.794;2022-08-30T16:37:06;24.00;62.90
60868;DHT22;46702;48.370;10.794;2022-08-30T16:39:32;23.90;64.80
60868;DHT22;46702;48.370;10.794;2022-08-30T16:41:58;23.90;61.60
60868;DHT22;46702;48.370;10.794;2022-08-30T16:44:26;23.90;63.00
60868;DHT22;46702;48.370;10.794;2022-08-30T16:46:52;23.70;65.00